createdAt,value
2018-08-04T00:00:38.139Z,26.00
2018-08-04T00:03:06.925Z,26.10
2018-08-04T00:05:35.695Z,26.10
2018-08-04T00:08:04.543Z,26.10
2018-08-04T00:13:01.801Z,26.20
2018-08-04T00:15:30.667Z,26.10
2018-08-04T00:17:59.397Z,26.00
2018-08-04T00:20:28.295Z,26.00
2018-08-04T00:22:57.243Z,25.90
2018-08-04T00:25:26.152Z,25.90
2018-08-04T00:27:54.992Z,25.90
2018-08-04T00:30:23.990Z,25.80
2018-08-04T00:32:52.932Z,25.80
2018-08-04T00:35:21.833Z,25.70
2018-08-04T00:37:50.689Z,25.80
2018-08-04T00:40:19.592Z,25.70
2018-08-04T00:42:48.622Z,25.70
2018-08-04T00:45:17.868Z,25.50
2018-08-04T00:47:47.280Z,25.40
2018-08-04T00:50:16.080Z,25.50
2018-08-04T00:52:44.808Z,25.50
2018-08-04T00:55:13.601Z,25.60
2018-08-04T00:57:42.448Z,25.60
2018-08-04T01:00:11.284Z,25.60
2018-08-04T01:02:40.130Z,25.60
2018-08-04T01:05:08.901Z,25.70
2018-08-04T01:07:37.679Z,25.60
2018-08-04T01:10:10.694Z,25.60
2018-08-04T01:12:43.710Z,25.50
2018-08-04T01:15:16.671Z,25.50
2018-08-04T01:17:51.033Z,25.40
2018-08-04T01:20:23.947Z,25.40
2018-08-04T01:22:57.932Z,25.30
2018-08-04T01:25:30.689Z,25.30
2018-08-04T01:28:03.517Z,25.30
2018-08-04T01:30:37.677Z,25.20
2018-08-04T01:33:11.547Z,25.10
2018-08-04T01:35:46.658Z,25.10
2018-08-04T01:38:19.757Z,25.10
2018-08-04T01:40:54.707Z,25.10
2018-08-04T01:43:28.015Z,25.10
2018-08-04T01:46:02.735Z,25.10
2018-08-04T01:48:36.789Z,25.00
2018-08-04T01:51:10.846Z,25.00
2018-08-04T01:53:44.414Z,25.00
2018-08-04T01:58:53.202Z,24.90
2018-08-04T02:01:26.022Z,24.90
2018-08-04T02:03:59.092Z,25.00
2018-08-04T02:06:32.345Z,25.00
2018-08-04T02:09:06.971Z,24.90
2018-08-04T02:11:39.880Z,24.80
2018-08-04T02:14:13.138Z,24.80
2018-08-04T02:16:45.959Z,24.80
2018-08-04T02:19:18.522Z,24.70
2018-08-04T02:21:52.260Z,24.70
2018-08-04T02:24:22.850Z,24.70
2018-08-04T02:26:54.698Z,24.70
2018-08-04T02:31:57.422Z,24.50
2018-08-04T02:34:31.290Z,24.50
2018-08-04T02:37:00.372Z,24.50
2018-08-04T02:39:29.132Z,24.50
2018-08-04T02:41:57.846Z,24.50
2018-08-04T02:44:26.630Z,24.50
2018-08-04T02:46:55.382Z,24.50
2018-08-04T02:49:24.264Z,24.40
2018-08-04T02:51:52.983Z,24.40
2018-08-04T02:54:21.672Z,24.20
2018-08-04T02:56:50.464Z,24.00
2018-08-04T02:59:19.329Z,24.00
2018-08-04T03:01:48.058Z,23.80
2018-08-04T03:04:16.824Z,23.80
2018-08-04T03:06:45.531Z,23.90
2018-08-04T03:09:14.423Z,24.00
2018-08-04T03:11:43.385Z,24.00
2018-08-04T03:14:12.269Z,24.00
2018-08-04T03:16:40.978Z,23.90
2018-08-04T03:19:09.653Z,23.90
2018-08-04T03:21:38.410Z,24.00
2018-08-04T03:24:07.172Z,24.00
2018-08-04T03:26:35.995Z,24.00
2018-08-04T03:29:04.798Z,23.90
2018-08-04T03:31:33.580Z,24.00
2018-08-04T03:34:02.282Z,23.90
2018-08-04T03:36:31.084Z,23.80
2018-08-04T03:38:59.962Z,23.80
2018-08-04T03:41:28.693Z,23.80
2018-08-04T03:43:57.422Z,23.90
2018-08-04T03:46:26.129Z,24.00
2018-08-04T03:48:54.890Z,24.00
2018-08-04T03:51:23.633Z,23.90
2018-08-04T03:53:52.542Z,23.80
2018-08-04T03:56:21.525Z,23.70
2018-08-04T03:58:50.341Z,23.60
2018-08-04T04:03:47.483Z,23.50
2018-08-04T04:06:16.277Z,23.40
2018-08-04T04:08:45.073Z,23.50
2018-08-04T04:11:13.772Z,23.50
2018-08-04T04:13:42.489Z,23.60
2018-08-04T04:16:11.291Z,23.60
2018-08-04T04:18:40.040Z,23.60
2018-08-04T04:21:08.768Z,23.60
2018-08-04T04:23:37.493Z,23.50
2018-08-04T04:26:06.281Z,23.60
2018-08-04T04:28:35.026Z,23.50
2018-08-04T04:31:03.736Z,23.50
2018-08-04T04:33:32.438Z,23.60
2018-08-04T04:36:01.207Z,23.60
2018-08-04T04:38:29.996Z,23.70
2018-08-04T04:40:58.823Z,23.60
2018-08-04T04:43:27.544Z,23.60
2018-08-04T04:45:56.388Z,23.60
2018-08-04T04:48:25.247Z,23.50
2018-08-04T04:50:54.026Z,23.60
2018-08-04T04:53:22.732Z,23.70
2018-08-04T04:55:51.509Z,23.70
2018-08-04T04:58:20.298Z,23.70
2018-08-04T05:00:49.082Z,23.80
2018-08-04T05:03:17.860Z,23.80
2018-08-04T05:05:46.574Z,23.80
2018-08-04T05:08:15.324Z,23.80
2018-08-04T05:10:44.088Z,23.80
2018-08-04T05:13:12.823Z,23.90
2018-08-04T05:15:41.628Z,23.90
2018-08-04T05:18:10.410Z,23.90
2018-08-04T05:20:39.167Z,24.00
2018-08-04T05:23:08.007Z,24.10
2018-08-04T05:25:36.758Z,24.10
2018-08-04T05:28:05.585Z,24.10
2018-08-04T05:30:34.280Z,24.20
2018-08-04T05:33:03.114Z,24.20
2018-08-04T05:35:31.914Z,24.20
2018-08-04T05:38:00.700Z,24.30
2018-08-04T05:40:29.473Z,24.30
2018-08-04T05:45:26.648Z,24.30
2018-08-04T05:47:55.469Z,24.40
2018-08-04T05:50:24.230Z,24.40
2018-08-04T05:52:53.045Z,24.50
2018-08-04T05:55:21.765Z,24.60
2018-08-04T05:57:50.659Z,24.60
2018-08-04T06:00:19.406Z,24.70
2018-08-04T06:02:48.188Z,24.70
2018-08-04T06:05:17.021Z,24.80
2018-08-04T06:07:45.800Z,24.90
2018-08-04T06:10:14.550Z,25.00
2018-08-04T06:12:43.338Z,25.10
2018-08-04T06:15:12.052Z,25.30
2018-08-04T06:17:47.316Z,25.30
2018-08-04T06:20:16.004Z,25.40
2018-08-04T06:22:44.771Z,25.50
2018-08-04T06:25:13.517Z,25.70
2018-08-04T06:27:42.309Z,25.80
2018-08-04T06:30:12.150Z,25.70
2018-08-04T06:32:42.061Z,25.80
2018-08-04T06:35:11.393Z,25.90
2018-08-04T06:37:40.142Z,25.90
2018-08-04T06:40:09.177Z,26.00
2018-08-04T06:42:38.011Z,26.20
2018-08-04T06:45:06.913Z,26.40
2018-08-04T06:47:35.741Z,26.40
2018-08-04T06:50:04.632Z,26.40
2018-08-04T06:52:33.312Z,26.50
2018-08-04T06:55:02.054Z,26.70
2018-08-04T06:57:30.813Z,26.70
2018-08-04T06:59:59.533Z,26.80
2018-08-04T07:02:28.320Z,27.00
2018-08-04T07:04:57.070Z,27.20
2018-08-04T07:07:25.808Z,27.20
2018-08-04T07:09:54.530Z,27.30
2018-08-04T07:12:23.296Z,27.40
2018-08-04T07:14:52.050Z,27.50
2018-08-04T07:17:20.799Z,27.50
2018-08-04T07:19:49.547Z,27.60
2018-08-04T07:22:18.418Z,27.60
2018-08-04T07:24:47.144Z,27.80
2018-08-04T07:27:15.889Z,28.00
2018-08-04T07:29:44.552Z,28.00
2018-08-04T07:32:13.327Z,28.20
2018-08-04T07:34:42.120Z,28.20
2018-08-04T07:37:10.960Z,28.20
2018-08-04T07:39:39.907Z,28.40
2018-08-04T07:42:08.736Z,28.50
2018-08-04T07:47:06.046Z,28.60
2018-08-04T07:49:34.767Z,28.90
2018-08-04T07:52:03.628Z,29.00
2018-08-04T07:54:32.578Z,29.20
2018-08-04T07:59:29.822Z,29.50
2018-08-04T08:01:58.496Z,29.60
2018-08-04T08:04:27.240Z,30.00
2018-08-04T08:06:55.927Z,30.10
2018-08-04T08:09:24.822Z,30.10
2018-08-04T08:11:53.610Z,30.40
2018-08-04T08:14:22.369Z,30.50
2018-08-04T08:16:51.470Z,30.50
2018-08-04T08:19:20.957Z,30.70
2018-08-04T08:21:50.741Z,30.60
2018-08-04T08:24:19.598Z,30.50
2018-08-04T08:29:17.477Z,30.80
2018-08-04T08:31:46.404Z,30.90
2018-08-04T08:34:15.155Z,31.00
2018-08-04T08:36:43.977Z,31.20
2018-08-04T08:39:12.757Z,31.40
2018-08-04T08:41:41.786Z,31.80
2018-08-04T08:46:39.189Z,32.30
2018-08-04T08:49:07.893Z,32.30
2018-08-04T08:51:36.705Z,32.30
2018-08-04T08:54:06.170Z,32.40
2018-08-04T08:56:34.932Z,32.60
2018-08-04T08:59:03.709Z,32.60
2018-08-04T09:01:32.498Z,32.90
2018-08-04T09:04:01.414Z,33.10
2018-08-04T09:06:30.303Z,33.30
2018-08-04T09:08:58.994Z,33.40
2018-08-04T09:11:27.876Z,33.50
2018-08-04T09:13:56.614Z,33.40
2018-08-04T09:16:25.527Z,33.40
2018-08-04T09:18:54.704Z,33.40
2018-08-04T09:21:23.553Z,33.60
2018-08-04T09:23:52.429Z,33.60
2018-08-04T09:26:21.339Z,33.60
2018-08-04T09:28:50.074Z,33.80
2018-08-04T09:31:18.818Z,33.80
2018-08-04T09:33:47.753Z,33.90
2018-08-04T09:36:16.491Z,33.90
2018-08-04T09:38:45.452Z,33.90
2018-08-04T09:41:14.670Z,34.10
2018-08-04T09:43:43.855Z,34.20
2018-08-04T09:46:12.775Z,34.20
2018-08-04T09:48:41.579Z,34.40
2018-08-04T09:51:10.405Z,34.80
2018-08-04T09:53:39.163Z,35.10
2018-08-04T09:56:08.256Z,35.30
2018-08-04T09:58:37.064Z,35.40
2018-08-04T10:01:11.465Z,35.50
2018-08-04T10:03:40.141Z,35.50
2018-08-04T10:06:08.938Z,35.70
2018-08-04T10:08:37.720Z,36.00
2018-08-04T10:11:06.671Z,36.30
2018-08-04T10:13:35.570Z,36.50
2018-08-04T10:16:04.451Z,36.60
2018-08-04T10:18:33.208Z,36.80
2018-08-04T10:21:01.961Z,37.00
2018-08-04T10:23:30.665Z,37.10
2018-08-04T10:25:59.407Z,36.60
2018-08-04T10:28:28.124Z,36.70
2018-08-04T10:30:56.871Z,37.00
2018-08-04T10:33:26.043Z,37.20
2018-08-04T10:35:55.697Z,37.10
2018-08-04T10:38:24.550Z,36.90
2018-08-04T10:40:53.811Z,36.70
2018-08-04T10:43:23.301Z,36.30
2018-08-04T10:45:52.297Z,36.30
2018-08-04T10:48:21.064Z,36.30
2018-08-04T10:50:50.213Z,36.20
2018-08-04T10:53:19.241Z,36.40
2018-08-04T10:55:48.377Z,36.50
2018-08-04T10:58:17.518Z,36.50
2018-08-04T11:00:46.549Z,36.50
2018-08-04T11:03:15.855Z,36.70
2018-08-04T11:05:44.718Z,36.90
2018-08-04T11:08:13.739Z,36.80
2018-08-04T11:10:42.859Z,36.70
2018-08-04T11:15:40.269Z,37.00
2018-08-04T11:18:09.295Z,37.10
2018-08-04T11:20:38.236Z,37.30
2018-08-04T11:23:07.100Z,37.30
2018-08-04T11:25:35.946Z,37.40
2018-08-04T11:28:04.705Z,37.50
2018-08-04T11:30:33.422Z,37.80
2018-08-04T11:33:02.167Z,38.10
2018-08-04T11:35:31.021Z,38.20
2018-08-04T11:37:59.733Z,38.20
2018-08-04T11:40:28.522Z,38.40
2018-08-04T11:42:57.217Z,38.60
2018-08-04T11:45:26.090Z,38.60
2018-08-04T11:47:54.750Z,38.90
2018-08-04T11:50:23.481Z,38.90
2018-08-04T11:52:52.213Z,39.00
2018-08-04T11:55:20.947Z,38.90
2018-08-04T11:57:49.620Z,38.80
2018-08-04T12:00:18.324Z,38.50
2018-08-04T12:02:47.125Z,38.40
2018-08-04T12:05:15.873Z,38.30
2018-08-04T12:07:44.628Z,38.10
2018-08-04T12:10:13.631Z,38.10
2018-08-04T12:12:42.282Z,38.20
2018-08-04T12:15:11.053Z,38.40
2018-08-04T12:17:39.811Z,38.30
2018-08-04T12:22:37.176Z,38.30
2018-08-04T12:27:34.640Z,38.00
2018-08-04T12:30:03.393Z,37.80
2018-08-04T12:32:32.177Z,37.70
2018-08-04T12:35:01.091Z,37.50
2018-08-04T12:37:29.921Z,37.20
2018-08-04T12:39:58.662Z,37.10
2018-08-04T12:42:27.422Z,37.00
2018-08-04T12:44:56.491Z,37.00
2018-08-04T12:47:25.173Z,36.90
2018-08-04T12:49:53.880Z,36.90
2018-08-04T12:52:22.874Z,37.00
2018-08-04T12:54:52.157Z,37.10
2018-08-04T12:57:21.397Z,37.00
2018-08-04T12:59:50.117Z,36.90
2018-08-04T13:02:18.847Z,36.70
2018-08-04T13:04:47.562Z,36.70
2018-08-04T13:07:16.336Z,36.70
2018-08-04T13:09:45.082Z,36.70
2018-08-04T13:12:13.950Z,36.50
2018-08-04T13:14:42.842Z,36.60
2018-08-04T13:17:11.576Z,36.60
2018-08-04T13:19:40.286Z,36.70
2018-08-04T13:22:09.062Z,36.70
2018-08-04T13:24:37.792Z,36.80
2018-08-04T13:27:06.561Z,36.90
2018-08-04T13:29:35.275Z,37.10
2018-08-04T13:32:04.333Z,37.20
2018-08-04T13:34:33.123Z,37.30
2018-08-04T13:37:02.186Z,37.40
2018-08-04T13:39:31.191Z,37.40
2018-08-04T13:41:59.973Z,37.40
2018-08-04T13:44:28.725Z,37.40
2018-08-04T13:46:57.526Z,37.50
2018-08-04T13:49:26.309Z,37.50
2018-08-04T13:51:55.105Z,37.50
2018-08-04T13:54:23.904Z,37.50
2018-08-04T13:56:52.644Z,37.50
2018-08-04T13:59:21.332Z,37.50
2018-08-04T14:01:50.153Z,37.30
2018-08-04T14:04:18.828Z,37.20
2018-08-04T14:06:47.539Z,37.10
2018-08-04T14:09:16.297Z,37.20
2018-08-04T14:11:45.252Z,37.30
2018-08-04T14:14:13.972Z,37.40
2018-08-04T14:16:42.732Z,37.50
2018-08-04T14:19:11.445Z,37.60
2018-08-04T14:21:40.162Z,37.50
2018-08-04T14:24:08.871Z,37.60
2018-08-04T14:29:06.063Z,37.50
2018-08-04T14:31:34.781Z,37.30
2018-08-04T14:34:03.513Z,37.30
2018-08-04T14:36:32.312Z,37.30
2018-08-04T14:39:01.069Z,37.20
2018-08-04T14:41:29.765Z,37.20
2018-08-04T14:43:59.375Z,37.20
2018-08-04T14:46:28.348Z,37.10
2018-08-04T14:48:57.062Z,37.00
2018-08-04T14:53:54.418Z,36.90
2018-08-04T14:56:23.157Z,36.90
2018-08-04T14:58:53.213Z,36.80
2018-08-04T15:01:22.352Z,36.60
2018-08-04T15:03:51.241Z,36.50
2018-08-04T15:06:20.564Z,36.30
2018-08-04T15:08:49.345Z,36.10
2018-08-04T15:11:18.142Z,36.00
2018-08-04T15:13:46.996Z,35.90
2018-08-04T15:16:15.868Z,35.90
2018-08-04T15:18:44.996Z,35.70
2018-08-04T15:21:14.000Z,35.70
2018-08-04T15:23:42.897Z,35.70
2018-08-04T15:26:11.932Z,35.60
2018-08-04T15:28:40.870Z,35.70
2018-08-04T15:31:09.730Z,35.80
2018-08-04T15:33:38.446Z,35.80
2018-08-04T15:36:07.614Z,35.90
2018-08-04T15:38:36.705Z,36.00
2018-08-04T15:41:05.876Z,36.00
2018-08-04T15:43:34.977Z,36.00
2018-08-04T15:46:03.799Z,36.00
2018-08-04T15:48:32.587Z,36.00
2018-08-04T15:51:01.378Z,36.00
2018-08-04T15:53:30.133Z,35.90
2018-08-04T15:55:59.149Z,35.80
2018-08-04T15:58:28.143Z,35.70
2018-08-04T16:00:57.197Z,35.70
2018-08-04T16:03:26.313Z,35.60
2018-08-04T16:05:55.452Z,35.60
2018-08-04T16:08:24.350Z,35.70
2018-08-04T16:10:53.148Z,35.80
2018-08-04T16:13:21.996Z,35.90
2018-08-04T16:15:50.747Z,36.00
2018-08-04T16:18:19.478Z,36.10
2018-08-04T16:20:48.144Z,36.10
2018-08-04T16:23:16.900Z,36.20
2018-08-04T16:25:45.672Z,36.10
2018-08-04T16:28:14.516Z,36.10
2018-08-04T16:30:43.204Z,36.20
2018-08-04T16:33:12.331Z,36.20
2018-08-04T16:35:41.039Z,36.10
2018-08-04T16:38:09.977Z,36.10
2018-08-04T16:40:38.731Z,36.10
2018-08-04T16:43:07.506Z,36.00
2018-08-04T16:48:04.657Z,35.90
2018-08-04T16:50:33.393Z,35.80
2018-08-04T16:53:02.144Z,35.80
2018-08-04T16:55:31.103Z,35.70
2018-08-04T16:57:59.861Z,35.60
2018-08-04T17:00:28.653Z,35.60
2018-08-04T17:02:57.445Z,35.50
2018-08-04T17:05:26.175Z,35.50
2018-08-04T17:07:54.869Z,35.40
2018-08-04T17:10:23.674Z,35.30
2018-08-04T17:12:52.403Z,35.30
2018-08-04T17:15:21.215Z,35.30
2018-08-04T17:17:50.090Z,35.20
2018-08-04T17:20:18.868Z,35.10
2018-08-04T17:22:47.680Z,35.10
2018-08-04T17:25:16.389Z,35.10
2018-08-04T17:27:45.157Z,35.00
2018-08-04T17:30:14.048Z,35.00
2018-08-04T17:32:42.777Z,34.90
2018-08-04T17:35:12.040Z,34.90
2018-08-04T17:37:40.937Z,34.90
2018-08-04T17:40:09.712Z,34.80
2018-08-04T17:42:38.502Z,34.80
2018-08-04T17:45:07.458Z,34.80
2018-08-04T17:47:36.288Z,34.80
2018-08-04T17:50:05.121Z,34.70
2018-08-04T17:52:33.863Z,34.70
2018-08-04T17:55:03.086Z,34.60
2018-08-04T17:57:31.774Z,34.50
2018-08-04T18:00:00.555Z,34.50
2018-08-04T18:02:29.289Z,34.40
2018-08-04T18:04:58.005Z,34.30
2018-08-04T18:07:27.180Z,34.30
2018-08-04T18:09:56.057Z,34.30
2018-08-04T18:12:24.770Z,34.30
2018-08-04T18:14:53.672Z,34.20
2018-08-04T18:17:22.620Z,34.00
2018-08-04T18:19:51.306Z,34.00
2018-08-04T18:22:20.096Z,33.90
2018-08-04T18:24:48.971Z,33.80
2018-08-04T18:27:18.056Z,33.80
2018-08-04T18:29:47.056Z,33.80
2018-08-04T18:32:15.833Z,33.70
2018-08-04T18:34:45.188Z,33.70
2018-08-04T18:37:14.483Z,33.60
2018-08-04T18:39:43.397Z,33.50
2018-08-04T18:42:12.453Z,33.50
2018-08-04T18:44:41.523Z,33.40
2018-08-04T18:47:10.692Z,33.30
2018-08-04T18:49:39.759Z,33.10
2018-08-04T18:52:08.777Z,32.80
2018-08-04T18:54:37.557Z,32.60
2018-08-04T18:57:06.743Z,32.30
2018-08-04T18:59:36.334Z,32.20
2018-08-04T19:02:05.295Z,32.10
2018-08-04T19:04:34.278Z,32.00
2018-08-04T19:07:03.106Z,31.90
2018-08-04T19:09:32.403Z,31.90
2018-08-04T19:12:01.124Z,31.80
2018-08-04T19:14:30.079Z,31.70
2018-08-04T19:16:58.863Z,31.40
2018-08-04T19:19:27.689Z,31.20
2018-08-04T19:21:56.464Z,31.20
2018-08-04T19:24:25.403Z,31.20
2018-08-04T19:26:54.372Z,31.10
2018-08-04T19:29:23.161Z,31.10
2018-08-04T19:34:20.623Z,31.10
2018-08-04T19:36:49.515Z,31.00
2018-08-04T19:39:18.234Z,30.90
2018-08-04T19:41:47.003Z,30.90
2018-08-04T19:44:16.072Z,30.70
2018-08-04T19:46:45.272Z,30.70
2018-08-04T19:49:14.175Z,30.70
2018-08-04T19:51:42.913Z,30.60
2018-08-04T19:54:11.748Z,30.50
2018-08-04T19:56:40.454Z,30.50
2018-08-04T19:59:09.394Z,30.40
2018-08-04T20:01:38.635Z,30.30
2018-08-04T20:04:12.816Z,30.10
2018-08-04T20:06:41.565Z,30.10
2018-08-04T20:09:11.609Z,29.90
2018-08-04T20:11:40.959Z,29.90
2018-08-04T20:14:09.758Z,29.80
2018-08-04T20:16:38.670Z,29.80
2018-08-04T20:19:07.505Z,29.70
2018-08-04T20:21:36.322Z,29.60
2018-08-04T20:24:05.160Z,29.60
2018-08-04T20:26:33.904Z,29.50
2018-08-04T20:31:31.176Z,29.30
2018-08-04T20:34:00.333Z,29.10
2018-08-04T20:36:29.342Z,29.00
2018-08-04T20:38:58.120Z,29.00
2018-08-04T20:41:27.057Z,29.00
2018-08-04T20:43:55.811Z,29.00
2018-08-04T20:46:24.664Z,28.90
2018-08-04T20:48:53.429Z,28.90
2018-08-04T20:51:22.187Z,28.80
2018-08-04T20:53:51.425Z,28.70
2018-08-04T20:56:20.379Z,28.70
2018-08-04T20:58:49.485Z,28.70
2018-08-04T21:01:29.278Z,28.60
2018-08-04T21:03:58.071Z,28.40
2018-08-04T21:06:27.012Z,28.50
2018-08-04T21:08:55.987Z,28.60
2018-08-04T21:11:25.053Z,28.60
2018-08-04T21:13:53.748Z,28.50
2018-08-04T21:16:22.666Z,28.30
2018-08-04T21:18:51.474Z,28.30
2018-08-04T21:21:20.348Z,28.40
2018-08-04T21:23:49.766Z,28.30
2018-08-04T21:26:18.867Z,28.30
2018-08-04T21:28:47.714Z,28.20
2018-08-04T21:31:16.419Z,28.10
2018-08-04T21:33:45.240Z,28.10
2018-08-04T21:36:14.063Z,28.10
2018-08-04T21:38:42.911Z,28.10
2018-08-04T21:43:40.084Z,28.10
2018-08-04T21:46:09.015Z,28.00
2018-08-04T21:48:37.970Z,28.00
2018-08-04T21:51:06.945Z,28.00
2018-08-04T21:53:35.875Z,28.00
2018-08-04T21:56:05.013Z,28.00
2018-08-04T21:58:33.800Z,27.90
2018-08-04T22:01:07.869Z,27.80
2018-08-04T22:03:36.668Z,27.80
2018-08-04T22:06:05.880Z,27.80
2018-08-04T22:08:45.894Z,27.80
2018-08-04T22:11:14.721Z,27.60
2018-08-04T22:13:43.615Z,27.30
2018-08-04T22:16:12.610Z,27.20
2018-08-04T22:18:41.789Z,27.30
2018-08-04T22:21:10.695Z,27.20
2018-08-04T22:23:39.616Z,27.20
2018-08-04T22:26:08.698Z,27.30
2018-08-04T22:28:37.897Z,27.30
2018-08-04T22:31:06.954Z,27.40
2018-08-04T22:33:35.873Z,27.30
2018-08-04T22:36:04.683Z,27.20
2018-08-04T22:38:33.436Z,27.20
2018-08-04T22:41:02.771Z,27.20
2018-08-04T22:43:31.612Z,27.20
2018-08-04T22:46:02.572Z,27.30
2018-08-04T22:48:31.564Z,27.30
2018-08-04T22:51:00.533Z,27.20
2018-08-04T22:53:29.509Z,27.20
2018-08-04T22:55:58.257Z,27.10
2018-08-04T22:58:27.063Z,27.10
2018-08-04T23:00:56.045Z,26.90
2018-08-04T23:03:24.962Z,26.90
2018-08-04T23:05:54.263Z,26.90
2018-08-04T23:08:23.311Z,26.90
2018-08-04T23:10:52.499Z,26.90
2018-08-04T23:13:21.499Z,26.80
2018-08-04T23:15:50.629Z,26.80
2018-08-04T23:18:19.574Z,26.80
2018-08-04T23:20:48.448Z,26.70
2018-08-04T23:23:17.580Z,26.60
2018-08-04T23:25:46.467Z,26.60
2018-08-04T23:28:15.694Z,26.60
2018-08-04T23:30:44.493Z,26.50
2018-08-04T23:33:13.179Z,26.40
2018-08-04T23:35:42.077Z,26.40
2018-08-04T23:38:11.192Z,26.40
2018-08-04T23:40:39.905Z,26.40
2018-08-04T23:43:08.797Z,26.40
2018-08-04T23:45:37.705Z,26.40
2018-08-04T23:48:06.525Z,26.40
2018-08-04T23:50:35.620Z,26.30
2018-08-04T23:53:04.481Z,26.30
2018-08-04T23:55:33.230Z,26.30
2018-08-04T23:58:02.049Z,26.30
